createdAt,value
2022-10-17T00:02:30.834Z,8.80
2022-10-17T00:07:32.086Z,8.97
2022-10-17T00:12:33.849Z,8.30
2022-10-17T00:17:34.927Z,8.63
2022-10-17T00:27:42.166Z,9.07
2022-10-17T00:32:43.438Z,8.03
2022-10-17T00:37:44.770Z,8.07
2022-10-17T00:42:45.963Z,9.73
2022-10-17T00:48:03.728Z,9.23
2022-10-17T00:53:07.778Z,8.87
2022-10-17T00:58:11.330Z,9.13
2022-10-17T01:03:13.018Z,8.10
2022-10-17T01:08:21.506Z,8.30
2022-10-17T01:13:44.061Z,8.95
2022-10-17T01:19:09.923Z,8.60
2022-10-17T01:24:23.337Z,7.30
2022-10-17T01:29:53.074Z,7.97
2022-10-17T01:35:02.177Z,7.55
2022-10-17T01:40:11.171Z,8.25
2022-10-17T01:45:19.041Z,7.97
2022-10-17T01:50:30.301Z,7.65
2022-10-17T01:55:38.474Z,8.25
2022-10-17T02:00:42.268Z,8.40
2022-10-17T02:05:44.561Z,7.75
2022-10-17T02:11:04.718Z,8.20
2022-10-17T02:16:34.920Z,7.97
2022-10-17T02:22:07.323Z,8.95
2022-10-17T02:27:16.278Z,7.55
2022-10-17T02:32:24.403Z,8.50
2022-10-17T02:37:29.165Z,7.70
2022-10-17T02:42:32.448Z,7.35
2022-10-17T02:47:42.446Z,8.00
2022-10-17T02:53:00.584Z,8.00
2022-10-17T02:58:11.299Z,6.57
2022-10-17T03:03:30.289Z,8.73
2022-10-17T03:08:35.477Z,7.38
2022-10-17T03:13:39.092Z,7.63
2022-10-17T03:18:41.675Z,6.97
2022-10-17T03:23:44.998Z,7.10
2022-10-17T03:28:50.729Z,6.35
2022-10-17T03:33:54.986Z,6.47
2022-10-17T03:38:56.432Z,6.88
2022-10-17T03:43:57.694Z,7.07
2022-10-17T03:48:59.522Z,7.35
2022-10-17T03:54:01.059Z,6.50
2022-10-17T03:59:02.594Z,6.75
2022-10-17T04:04:06.494Z,6.25
2022-10-17T04:09:10.342Z,6.30
2022-10-17T04:14:27.801Z,6.05
2022-10-17T04:19:29.013Z,6.63
2022-10-17T04:24:30.655Z,6.43
2022-10-17T04:29:41.050Z,7.10
2022-10-17T04:34:55.878Z,6.93
2022-10-17T04:39:58.237Z,5.82
2022-10-17T04:44:59.461Z,6.32
2022-10-17T04:50:01.815Z,6.32
2022-10-17T04:55:05.389Z,5.80
2022-10-17T05:05:28.638Z,6.97
2022-10-17T05:10:36.620Z,6.28
2022-10-17T05:15:38.832Z,6.45
2022-10-17T05:20:39.982Z,6.07
2022-10-17T05:25:41.481Z,6.90
2022-10-17T05:30:42.622Z,6.05
2022-10-17T05:35:44.605Z,6.13
2022-10-17T05:40:45.927Z,5.80
2022-10-17T05:45:47.236Z,6.10
2022-10-17T05:51:01.963Z,6.43
2022-10-17T05:56:07.205Z,6.05
2022-10-17T06:01:12.109Z,5.50
2022-10-17T06:06:15.264Z,5.93
2022-10-17T06:11:18.662Z,5.38
2022-10-17T06:16:20.297Z,5.25
2022-10-17T06:21:24.442Z,5.15
2022-10-17T06:26:27.893Z,4.80
2022-10-17T06:31:29.066Z,4.80
2022-10-17T06:36:30.533Z,4.68
2022-10-17T06:41:31.954Z,5.13
2022-10-17T06:46:39.430Z,4.40
2022-10-17T06:51:42.570Z,5.32
2022-10-17T06:56:46.611Z,4.88
2022-10-17T07:02:02.191Z,4.88
2022-10-17T07:07:04.898Z,4.65
2022-10-17T07:12:08.410Z,4.90
2022-10-17T07:17:10.071Z,4.95
2022-10-17T07:22:12.564Z,4.25
2022-10-17T07:27:17.425Z,4.57
2022-10-17T07:32:18.837Z,3.30
2022-10-17T07:37:20.121Z,3.47
2022-10-17T07:42:27.846Z,4.50
2022-10-17T07:47:30.541Z,3.70
2022-10-17T07:52:33.694Z,3.63
2022-10-17T07:57:34.912Z,4.50
2022-10-17T08:02:36.143Z,4.57
2022-10-17T08:07:38.285Z,4.80
2022-10-17T08:12:39.516Z,4.85
2022-10-17T08:17:40.560Z,5.47
2022-10-17T08:22:41.714Z,5.18
2022-10-17T08:27:42.869Z,5.50
2022-10-17T08:32:44.107Z,6.18
2022-10-17T08:37:45.122Z,7.68
2022-10-17T08:43:18.867Z,6.80
2022-10-17T08:48:24.634Z,6.85
2022-10-17T08:53:44.379Z,6.72
2022-10-17T08:58:45.754Z,6.05
2022-10-17T09:03:58.995Z,6.25
2022-10-17T09:09:28.178Z,6.30
2022-10-17T09:14:42.322Z,6.22
2022-10-17T09:20:11.955Z,5.82
2022-10-17T09:25:16.652Z,5.90
2022-10-17T09:30:51.033Z,6.70
2022-10-17T09:35:52.120Z,6.47
2022-10-17T09:40:59.994Z,6.82
2022-10-17T09:46:37.754Z,7.57
2022-10-17T09:51:39.942Z,8.02
2022-10-17T09:57:17.726Z,7.65
2022-10-17T10:02:21.300Z,6.57
2022-10-17T10:07:29.004Z,7.60
2022-10-17T10:12:33.613Z,7.25
2022-10-17T10:17:43.501Z,7.93
2022-10-17T10:23:03.512Z,7.68
2022-10-17T10:28:11.272Z,7.97
2022-10-17T10:33:12.607Z,6.97
2022-10-17T10:38:16.921Z,8.70
2022-10-17T10:43:25.142Z,7.72
2022-10-17T10:48:31.797Z,7.50
2022-10-17T10:54:21.254Z,8.25
2022-10-17T10:59:50.097Z,8.98
2022-10-17T11:04:57.172Z,7.90
2022-10-17T11:10:20.855Z,7.82
2022-10-17T11:15:35.942Z,7.50
2022-10-17T11:20:58.834Z,6.95
2022-10-17T11:26:04.881Z,7.07
2022-10-17T11:31:12.038Z,6.55
2022-10-17T11:36:14.971Z,7.32
2022-10-17T11:41:30.691Z,6.97
2022-10-17T11:46:35.355Z,7.63
2022-10-17T11:52:02.354Z,8.13
2022-10-17T11:57:24.528Z,8.10
2022-10-17T12:02:39.158Z,8.48
2022-10-17T12:08:08.754Z,7.85
2022-10-17T12:13:28.128Z,8.00
2022-10-17T12:18:29.213Z,8.45
2022-10-17T12:23:31.672Z,8.10
2022-10-17T12:28:45.966Z,8.77
2022-10-17T12:33:59.234Z,7.47
2022-10-17T12:39:03.415Z,8.32
2022-10-17T12:44:13.788Z,8.65
2022-10-17T12:49:44.891Z,8.23
2022-10-17T12:55:14.389Z,8.15
2022-10-17T13:00:36.469Z,8.90
2022-10-17T13:05:40.323Z,8.93
2022-10-17T13:10:50.113Z,8.32
2022-10-17T13:15:54.535Z,9.00
2022-10-17T13:21:13.991Z,8.75
2022-10-17T13:26:19.652Z,7.90
2022-10-17T13:31:33.730Z,6.57
2022-10-17T13:36:35.016Z,5.97
2022-10-17T13:41:37.498Z,5.70
2022-10-17T13:46:39.909Z,5.40
2022-10-17T13:51:47.183Z,4.72
2022-10-17T13:56:56.720Z,4.18
2022-10-17T14:02:00.814Z,4.18
2022-10-17T14:07:02.900Z,4.05
2022-10-17T14:12:15.834Z,4.10
2022-10-17T14:17:35.298Z,3.38
2022-10-17T14:22:36.643Z,3.70
2022-10-17T14:27:54.982Z,3.00
2022-10-17T14:32:59.483Z,3.70
2022-10-17T14:38:04.529Z,3.80
2022-10-17T14:43:06.305Z,3.97
2022-10-17T14:48:14.323Z,3.42
2022-10-17T14:53:15.534Z,3.72
2022-10-17T14:58:21.978Z,3.78
2022-10-17T15:03:24.124Z,3.63
2022-10-17T15:08:25.435Z,3.17
2022-10-17T15:13:28.036Z,3.63
2022-10-17T15:18:29.985Z,3.60
2022-10-17T15:23:31.314Z,3.20
2022-10-17T15:28:32.563Z,3.70
2022-10-17T15:33:33.687Z,3.33
2022-10-17T15:38:35.277Z,3.05
2022-10-17T15:43:36.388Z,3.20
2022-10-17T15:48:37.542Z,3.40
2022-10-17T15:53:39.031Z,3.33
2022-10-17T15:58:40.149Z,4.10
2022-10-17T16:03:41.637Z,4.10
2022-10-17T16:08:42.914Z,4.63
2022-10-17T16:13:51.416Z,4.70
2022-10-17T16:18:52.804Z,4.20
2022-10-17T16:23:54.097Z,4.60
2022-10-17T16:28:57.420Z,4.03
2022-10-17T16:34:00.095Z,4.40
2022-10-17T16:39:01.472Z,4.30
2022-10-17T16:44:06.046Z,4.57
2022-10-17T16:49:07.376Z,5.32
2022-10-17T16:54:08.822Z,5.10
2022-10-17T16:59:11.137Z,4.22
2022-10-17T17:04:12.206Z,4.70
2022-10-17T17:09:13.642Z,4.53
2022-10-17T17:14:15.021Z,6.90
2022-10-17T17:19:16.346Z,5.40
2022-10-17T17:24:22.373Z,5.68
2022-10-17T17:29:24.343Z,5.57
2022-10-17T17:34:25.673Z,5.70
2022-10-17T17:39:26.694Z,6.43
2022-10-17T17:44:27.838Z,6.53
2022-10-17T17:49:28.877Z,6.32
2022-10-17T17:54:30.018Z,6.10
2022-10-17T17:59:31.291Z,5.63
2022-10-17T18:04:32.557Z,4.97
2022-10-17T18:09:33.767Z,4.53
2022-10-17T18:14:34.955Z,4.38
2022-10-17T18:19:36.213Z,4.47
2022-10-17T18:24:37.559Z,3.88
2022-10-17T18:29:38.585Z,4.10
2022-10-17T18:34:40.529Z,3.95
2022-10-17T18:39:41.862Z,3.50
2022-10-17T18:44:43.254Z,3.60
2022-10-17T18:49:44.405Z,3.90
2022-10-17T18:54:45.605Z,3.53
2022-10-17T18:59:46.842Z,3.65
2022-10-17T19:09:53.967Z,4.00
2022-10-17T19:14:55.605Z,3.92
2022-10-17T19:19:56.852Z,3.70
2022-10-17T19:24:58.046Z,3.90
2022-10-17T19:29:59.151Z,3.50
2022-10-17T19:35:00.179Z,4.90
2022-10-17T19:40:01.559Z,4.60
2022-10-17T19:45:03.078Z,3.63
2022-10-17T19:50:05.439Z,4.45
2022-10-17T19:55:07.071Z,4.90
2022-10-17T20:00:08.561Z,4.70
2022-10-17T20:05:18.627Z,3.85
2022-10-17T20:10:20.938Z,4.88
2022-10-17T20:15:22.022Z,4.20
2022-10-17T20:20:23.701Z,4.60
2022-10-17T20:25:24.788Z,4.45
2022-10-17T20:30:26.089Z,5.22
2022-10-17T20:35:27.253Z,5.35
2022-10-17T20:40:35.953Z,5.10
2022-10-17T20:45:50.974Z,6.82
2022-10-17T20:50:53.424Z,6.15
2022-10-17T20:56:06.640Z,5.60
2022-10-17T21:01:09.424Z,5.60
2022-10-17T21:06:11.294Z,4.95
2022-10-17T21:11:20.862Z,4.95
2022-10-17T21:16:22.312Z,5.30
2022-10-17T21:21:26.419Z,5.90
2022-10-17T21:26:28.329Z,5.35
2022-10-17T21:31:29.465Z,5.43
2022-10-17T21:36:30.696Z,5.53
2022-10-17T21:41:32.516Z,5.80
2022-10-17T21:46:33.773Z,5.90
2022-10-17T21:51:34.963Z,5.20
2022-10-17T21:56:36.501Z,5.20
2022-10-17T22:01:41.102Z,6.13
2022-10-17T22:06:45.071Z,6.07
2022-10-17T22:11:48.802Z,6.35
2022-10-17T22:16:50.150Z,6.45
2022-10-17T22:21:52.075Z,6.75
2022-10-17T22:26:53.362Z,6.35
2022-10-17T22:31:54.418Z,6.05
2022-10-17T22:36:55.498Z,6.20
2022-10-17T22:41:57.093Z,6.68
2022-10-17T22:46:58.131Z,6.85
2022-10-17T22:51:59.190Z,7.05
2022-10-17T22:57:00.204Z,7.07
2022-10-17T23:02:01.510Z,6.57
2022-10-17T23:07:02.762Z,6.72
2022-10-17T23:12:04.360Z,6.57
2022-10-17T23:17:05.974Z,6.22
2022-10-17T23:22:08.154Z,6.35
2022-10-17T23:27:09.307Z,6.25
2022-10-17T23:32:10.348Z,6.93
2022-10-17T23:37:11.681Z,6.18
2022-10-17T23:42:12.927Z,7.30
2022-10-17T23:47:14.142Z,6.57
2022-10-17T23:52:15.278Z,6.20
2022-10-17T23:57:16.349Z,6.80
